createdAt,value
2017-09-20T00:01:50.224Z,24.83
2017-09-20T00:04:17.662Z,26.47
2017-09-20T00:06:45.087Z,28.33
2017-09-20T00:09:12.529Z,25.80
2017-09-20T00:11:40.345Z,24.87
2017-09-20T00:14:07.821Z,27.10
2017-09-20T00:16:35.358Z,28.53
2017-09-20T00:19:02.759Z,26.90
2017-09-20T00:21:30.202Z,28.03
2017-09-20T00:23:57.659Z,27.40
2017-09-20T00:26:25.103Z,31.97
2017-09-20T00:28:52.560Z,26.90
2017-09-20T00:31:19.975Z,26.63
2017-09-20T00:33:47.487Z,28.00
2017-09-20T00:36:14.948Z,28.87
2017-09-20T00:38:42.380Z,27.27
2017-09-20T00:41:10.202Z,27.33
2017-09-20T00:43:37.666Z,27.73
2017-09-20T00:46:05.134Z,28.90
2017-09-20T00:48:32.555Z,27.57
2017-09-20T00:51:00.015Z,28.27
2017-09-20T00:53:27.446Z,26.37
2017-09-20T00:55:54.867Z,27.80
2017-09-20T00:58:22.343Z,29.17
2017-09-20T01:00:49.896Z,28.90
2017-09-20T01:03:17.342Z,31.90
2017-09-20T01:05:44.787Z,29.67
2017-09-20T01:08:12.207Z,37.50
2017-09-20T01:10:39.692Z,37.30
2017-09-20T01:13:08.674Z,35.50
2017-09-20T01:15:36.091Z,32.30
2017-09-20T01:18:03.719Z,30.57
2017-09-20T01:20:43.599Z,30.60
2017-09-20T01:23:22.117Z,29.60
2017-09-20T01:25:49.548Z,28.27
2017-09-20T01:28:17.375Z,29.80
2017-09-20T01:30:45.326Z,26.50
2017-09-20T01:33:12.761Z,27.33
2017-09-20T01:35:40.192Z,29.67
2017-09-20T01:38:07.716Z,28.33
2017-09-20T01:40:35.148Z,30.73
2017-09-20T01:43:02.927Z,28.80
2017-09-20T01:45:30.362Z,30.40
2017-09-20T01:47:58.181Z,30.37
2017-09-20T01:50:25.634Z,30.20
2017-09-20T01:52:53.274Z,30.70
2017-09-20T01:55:21.080Z,29.53
2017-09-20T01:57:48.528Z,31.37
2017-09-20T02:00:16.197Z,29.43
2017-09-20T02:02:43.622Z,28.67
2017-09-20T02:05:12.591Z,29.40
2017-09-20T02:07:40.037Z,28.50
2017-09-20T02:10:07.477Z,30.60
2017-09-20T02:12:34.956Z,32.60
2017-09-20T02:15:02.418Z,30.07
2017-09-20T02:17:30.061Z,29.80
2017-09-20T02:19:57.543Z,30.03
2017-09-20T02:22:25.024Z,30.47
2017-09-20T02:24:52.644Z,29.50
2017-09-20T02:27:20.193Z,30.60
2017-09-20T02:29:48.117Z,29.27
2017-09-20T02:32:15.701Z,30.93
2017-09-20T02:34:43.152Z,30.10
2017-09-20T02:37:10.605Z,31.10
2017-09-20T02:39:38.092Z,29.83
2017-09-20T02:42:06.012Z,30.90
2017-09-20T02:44:33.484Z,30.23
2017-09-20T02:47:03.707Z,30.23
2017-09-20T02:49:31.161Z,31.60
2017-09-20T02:51:58.629Z,31.97
2017-09-20T02:54:26.122Z,30.43
2017-09-20T02:56:53.580Z,30.30
2017-09-20T02:59:21.033Z,30.77
2017-09-20T03:01:48.612Z,29.93
2017-09-20T03:04:16.070Z,29.60
2017-09-20T03:06:43.529Z,33.30
2017-09-20T03:09:11.068Z,31.33
2017-09-20T03:11:38.529Z,30.80
2017-09-20T03:14:05.987Z,32.57
2017-09-20T03:16:33.680Z,32.27
2017-09-20T03:19:01.155Z,32.10
2017-09-20T03:21:28.717Z,32.30
2017-09-20T03:23:56.193Z,33.93
2017-09-20T03:26:23.713Z,32.23
2017-09-20T03:28:51.305Z,33.47
2017-09-20T03:31:18.892Z,30.97
2017-09-20T03:33:46.771Z,30.47
2017-09-20T03:36:14.710Z,34.13
2017-09-20T03:38:42.325Z,31.03
2017-09-20T03:41:09.772Z,31.13
2017-09-20T03:43:37.611Z,31.40
2017-09-20T03:46:05.124Z,31.10
2017-09-20T03:48:32.604Z,31.87
2017-09-20T03:51:00.438Z,30.70
2017-09-20T03:53:28.463Z,31.80
2017-09-20T03:55:55.923Z,30.87
2017-09-20T03:58:23.361Z,32.50
2017-09-20T04:00:50.817Z,32.63
2017-09-20T04:03:18.267Z,31.47
2017-09-20T04:05:46.121Z,29.20
2017-09-20T04:08:13.995Z,28.13
2017-09-20T04:10:41.827Z,29.40
2017-09-20T04:13:09.276Z,30.40
2017-09-20T04:15:36.729Z,25.93
2017-09-20T04:18:04.176Z,28.50
2017-09-20T04:20:31.644Z,31.13
2017-09-20T04:22:59.090Z,29.33
2017-09-20T04:25:26.545Z,28.97
2017-09-20T04:27:54.468Z,32.00
2017-09-20T04:30:21.896Z,28.37
2017-09-20T04:32:49.386Z,30.40
2017-09-20T04:35:18.749Z,29.63
2017-09-20T04:37:46.217Z,29.00
2017-09-20T04:40:13.724Z,33.10
2017-09-20T04:42:41.268Z,31.30
2017-09-20T04:45:08.719Z,29.93
2017-09-20T04:47:36.188Z,29.87
2017-09-20T04:50:03.641Z,31.50
2017-09-20T04:52:31.091Z,28.30
2017-09-20T04:54:58.932Z,31.37
2017-09-20T04:57:26.800Z,28.97
2017-09-20T04:59:54.253Z,30.47
2017-09-20T05:02:23.313Z,30.03
2017-09-20T05:04:50.757Z,28.30
2017-09-20T05:07:18.188Z,29.77
2017-09-20T05:09:45.915Z,29.07
2017-09-20T05:12:13.366Z,28.67
2017-09-20T05:14:40.795Z,27.90
2017-09-20T05:17:08.653Z,28.17
2017-09-20T05:19:36.090Z,29.00
2017-09-20T05:22:03.534Z,26.50
2017-09-20T05:24:30.970Z,27.50
2017-09-20T05:26:58.390Z,27.20
2017-09-20T05:29:25.843Z,27.90
2017-09-20T05:31:53.267Z,26.60
2017-09-20T05:34:20.714Z,28.20
2017-09-20T05:36:48.159Z,28.87
2017-09-20T05:39:15.594Z,28.07
2017-09-20T05:41:43.048Z,26.73
2017-09-20T05:44:10.496Z,26.10
2017-09-20T05:46:38.031Z,26.40
2017-09-20T05:49:05.509Z,29.20
2017-09-20T05:51:33.161Z,27.13
2017-09-20T05:54:00.585Z,29.53
2017-09-20T05:56:28.404Z,28.13
2017-09-20T05:58:56.153Z,28.20
2017-09-20T06:01:23.620Z,27.00
2017-09-20T06:03:51.047Z,28.30
2017-09-20T06:06:18.896Z,28.50
2017-09-20T06:08:46.354Z,25.80
2017-09-20T06:11:13.808Z,27.13
2017-09-20T06:13:41.442Z,26.90
2017-09-20T06:16:08.888Z,27.63
2017-09-20T06:18:36.334Z,25.30
2017-09-20T06:21:04.496Z,28.13
2017-09-20T06:23:31.943Z,26.50
2017-09-20T06:25:59.412Z,25.73
2017-09-20T06:28:26.858Z,25.73
2017-09-20T06:30:54.341Z,26.70
2017-09-20T06:33:21.783Z,28.43
2017-09-20T06:35:49.252Z,25.37
2017-09-20T06:38:16.794Z,26.07
2017-09-20T06:40:44.233Z,28.03
2017-09-20T06:43:13.504Z,24.73
2017-09-20T06:45:41.322Z,26.40
2017-09-20T06:48:09.099Z,25.70
2017-09-20T06:50:36.546Z,25.10
2017-09-20T06:53:03.992Z,26.83
2017-09-20T06:55:31.507Z,24.53
2017-09-20T06:57:59.127Z,26.27
2017-09-20T07:00:26.764Z,26.20
2017-09-20T07:02:54.587Z,27.07
2017-09-20T07:05:22.046Z,25.50
2017-09-20T07:07:49.632Z,25.47
2017-09-20T07:10:17.173Z,25.30
2017-09-20T07:12:44.620Z,24.60
2017-09-20T07:15:12.067Z,25.13
2017-09-20T07:17:39.539Z,26.93
2017-09-20T07:20:07.233Z,23.30
2017-09-20T07:22:34.683Z,24.40
2017-09-20T07:25:02.146Z,25.00
2017-09-20T07:27:29.620Z,23.50
2017-09-20T07:29:57.139Z,24.57
2017-09-20T07:32:25.236Z,26.07
2017-09-20T07:34:52.694Z,25.50
2017-09-20T07:37:20.121Z,24.07
2017-09-20T07:39:47.973Z,24.60
2017-09-20T07:42:15.417Z,23.57
2017-09-20T07:44:42.920Z,25.27
2017-09-20T07:47:10.790Z,22.13
2017-09-20T07:49:38.714Z,24.80
2017-09-20T07:52:06.179Z,25.47
2017-09-20T07:54:33.744Z,22.90
2017-09-20T07:57:01.187Z,23.60
2017-09-20T07:59:28.626Z,24.60
2017-09-20T08:01:56.362Z,25.13
2017-09-20T08:04:23.810Z,24.47
2017-09-20T08:06:51.265Z,25.33
2017-09-20T08:09:18.927Z,21.90
2017-09-20T08:11:46.382Z,23.53
2017-09-20T08:14:14.131Z,23.60
2017-09-20T08:16:41.599Z,24.10
2017-09-20T08:19:09.060Z,21.10
2017-09-20T08:21:36.759Z,21.67
2017-09-20T08:24:04.219Z,19.23
2017-09-20T08:26:31.702Z,18.37
2017-09-20T08:28:59.194Z,16.87
2017-09-20T08:31:26.653Z,18.80
2017-09-20T08:33:54.572Z,17.17
2017-09-20T08:36:22.079Z,19.20
2017-09-20T08:38:49.944Z,19.67
2017-09-20T08:41:17.802Z,19.40
2017-09-20T08:43:45.280Z,19.63
2017-09-20T08:46:13.105Z,19.83
2017-09-20T08:48:40.550Z,20.93
2017-09-20T08:51:08.116Z,20.83
2017-09-20T08:56:09.694Z,18.27
2017-09-20T08:58:37.124Z,19.37
2017-09-20T09:01:05.551Z,18.90
2017-09-20T09:03:33.210Z,18.57
2017-09-20T09:06:00.661Z,19.30
2017-09-20T09:08:28.101Z,17.83
2017-09-20T09:10:55.579Z,19.77
2017-09-20T09:13:23.073Z,17.20
2017-09-20T09:15:50.507Z,19.43
2017-09-20T09:18:18.198Z,18.37
2017-09-20T09:20:45.835Z,18.47
2017-09-20T09:23:13.337Z,17.23
2017-09-20T09:25:40.773Z,17.93
2017-09-20T09:28:08.479Z,17.13
2017-09-20T09:30:35.942Z,25.60
2017-09-20T09:33:03.371Z,18.43
2017-09-20T09:35:30.943Z,18.57
2017-09-20T09:37:58.372Z,17.63
2017-09-20T09:40:25.810Z,20.10
2017-09-20T09:42:53.805Z,18.93
2017-09-20T09:45:21.232Z,18.47
2017-09-20T09:47:48.743Z,19.20
2017-09-20T09:50:16.216Z,18.37
2017-09-20T09:52:43.665Z,17.50
2017-09-20T09:55:11.129Z,18.90
2017-09-20T09:57:38.606Z,16.87
2017-09-20T10:00:06.035Z,17.53
2017-09-20T10:02:33.485Z,19.23
2017-09-20T10:05:01.357Z,17.90
2017-09-20T10:07:28.825Z,18.43
2017-09-20T10:09:56.301Z,18.20
2017-09-20T10:12:23.746Z,18.23
2017-09-20T10:14:51.187Z,19.00
2017-09-20T10:17:19.117Z,18.50
2017-09-20T10:19:46.581Z,18.40
2017-09-20T10:22:14.040Z,19.13
2017-09-20T10:24:41.567Z,17.97
2017-09-20T10:27:09.423Z,20.80
2017-09-20T10:29:36.890Z,18.87
2017-09-20T10:32:04.627Z,19.63
2017-09-20T10:34:32.069Z,18.80
2017-09-20T10:36:59.506Z,18.50
2017-09-20T10:39:26.997Z,19.83
2017-09-20T10:41:54.636Z,17.77
2017-09-20T10:44:22.083Z,17.27
2017-09-20T10:46:49.734Z,17.57
2017-09-20T10:49:17.593Z,18.63
2017-09-20T10:51:45.037Z,20.47
2017-09-20T10:54:12.665Z,23.87
2017-09-20T10:56:40.302Z,22.10
2017-09-20T10:59:08.247Z,20.30
2017-09-20T11:01:35.973Z,20.90
2017-09-20T11:04:03.430Z,20.20
2017-09-20T11:06:30.895Z,19.40
2017-09-20T11:08:58.644Z,18.03
2017-09-20T11:11:26.640Z,19.00
2017-09-20T11:13:54.450Z,18.70
2017-09-20T11:16:21.918Z,17.40
2017-09-20T11:18:49.408Z,16.93
2017-09-20T11:21:17.492Z,17.73
2017-09-20T11:23:44.995Z,18.40
2017-09-20T11:26:12.547Z,16.23
2017-09-20T11:28:40.029Z,16.27
2017-09-20T11:31:07.493Z,17.20
2017-09-20T11:33:34.959Z,16.10
2017-09-20T11:36:02.569Z,15.97
2017-09-20T11:38:30.959Z,15.90
2017-09-20T11:40:58.839Z,15.50
2017-09-20T11:43:26.611Z,16.23
2017-09-20T11:45:54.472Z,14.40
2017-09-20T11:48:22.252Z,16.03
2017-09-20T11:50:50.250Z,15.80
2017-09-20T11:53:17.959Z,14.80
2017-09-20T11:55:46.091Z,15.03
2017-09-20T11:58:13.607Z,14.17
2017-09-20T12:00:41.642Z,14.07
2017-09-20T12:03:09.290Z,15.57
2017-09-20T12:05:36.732Z,13.43
2017-09-20T12:08:04.199Z,13.90
2017-09-20T12:10:31.713Z,13.73
2017-09-20T12:12:59.138Z,11.90
2017-09-20T12:15:26.605Z,11.60
2017-09-20T12:17:54.079Z,12.47
2017-09-20T12:20:21.523Z,12.07
2017-09-20T12:22:49.026Z,12.27
2017-09-20T12:25:16.503Z,12.53
2017-09-20T12:27:44.364Z,11.60
2017-09-20T12:30:11.824Z,10.63
2017-09-20T12:32:39.288Z,12.67
2017-09-20T12:35:07.156Z,10.90
2017-09-20T12:37:34.593Z,9.87
2017-09-20T12:40:02.263Z,11.83
2017-09-20T12:42:29.774Z,13.40
2017-09-20T12:44:57.356Z,13.07
2017-09-20T12:47:24.861Z,9.73
2017-09-20T12:49:53.608Z,9.67
2017-09-20T12:52:21.066Z,9.77
2017-09-20T12:54:48.534Z,9.10
2017-09-20T12:57:16.277Z,10.30
2017-09-20T12:59:44.138Z,9.50
2017-09-20T13:02:12.081Z,9.33
2017-09-20T13:04:39.917Z,15.67
2017-09-20T13:07:07.350Z,7.40
2017-09-20T13:09:35.255Z,8.97
2017-09-20T13:12:02.757Z,14.17
2017-09-20T13:14:30.206Z,10.20
2017-09-20T13:16:57.783Z,7.80
2017-09-20T13:19:25.451Z,7.33
2017-09-20T13:21:52.904Z,6.63
2017-09-20T13:24:20.610Z,7.60
2017-09-20T13:26:48.490Z,9.27
2017-09-20T13:29:15.956Z,8.37
2017-09-20T13:31:43.381Z,9.73
2017-09-20T13:34:10.892Z,9.53
2017-09-20T13:36:38.355Z,9.50
2017-09-20T13:39:05.795Z,10.13
2017-09-20T13:41:34.409Z,13.57
2017-09-20T13:44:01.873Z,12.00
2017-09-20T13:46:29.365Z,10.90
2017-09-20T13:48:56.974Z,13.17
2017-09-20T13:51:24.871Z,12.90
2017-09-20T13:53:52.304Z,10.77
2017-09-20T13:56:20.503Z,10.23
2017-09-20T13:58:47.924Z,11.00
2017-09-20T14:01:15.654Z,10.90
2017-09-20T14:03:43.934Z,10.30
2017-09-20T14:06:11.373Z,10.00
2017-09-20T14:08:38.813Z,9.10
2017-09-20T14:11:06.418Z,8.73
2017-09-20T14:13:34.112Z,7.10
2017-09-20T14:16:01.571Z,6.83
2017-09-20T14:18:29.002Z,6.90
2017-09-20T14:20:57.964Z,8.67
2017-09-20T14:23:25.877Z,9.23
2017-09-20T14:25:53.457Z,8.20
2017-09-20T14:28:21.138Z,8.50
2017-09-20T14:30:48.564Z,9.50
2017-09-20T14:33:15.998Z,9.60
2017-09-20T14:35:43.553Z,9.87
2017-09-20T14:38:11.402Z,9.40
2017-09-20T14:40:38.855Z,9.10
2017-09-20T14:43:06.509Z,11.00
2017-09-20T14:45:34.367Z,9.20
2017-09-20T14:48:01.804Z,10.50
2017-09-20T14:50:29.248Z,9.77
2017-09-20T14:52:56.703Z,10.30
2017-09-20T14:55:24.531Z,9.40
2017-09-20T14:57:51.996Z,9.67
2017-09-20T15:00:19.442Z,9.17
2017-09-20T15:02:46.870Z,8.40
2017-09-20T15:05:14.336Z,6.13
2017-09-20T15:07:42.165Z,6.87
2017-09-20T15:10:09.639Z,6.80
2017-09-20T15:12:37.124Z,7.53
2017-09-20T15:15:05.018Z,7.37
2017-09-20T15:17:32.517Z,7.10
2017-09-20T15:20:00.068Z,8.20
2017-09-20T15:22:27.524Z,7.47
2017-09-20T15:24:54.957Z,7.93
2017-09-20T15:27:22.544Z,10.07
2017-09-20T15:29:49.973Z,7.90
2017-09-20T15:32:17.840Z,8.37
2017-09-20T15:34:45.690Z,8.13
2017-09-20T15:37:13.126Z,8.00
2017-09-20T15:39:40.792Z,7.17
2017-09-20T15:42:08.217Z,8.20
2017-09-20T15:44:35.702Z,10.43
2017-09-20T15:47:03.578Z,8.07
2017-09-20T15:49:30.990Z,9.30
2017-09-20T15:51:58.861Z,9.23
2017-09-20T15:54:26.797Z,10.77
2017-09-20T15:56:54.300Z,9.57
2017-09-20T15:59:22.297Z,10.10
2017-09-20T16:01:49.719Z,9.47
2017-09-20T16:04:17.550Z,10.67
2017-09-20T16:06:45.133Z,9.60
2017-09-20T16:09:12.581Z,9.43
2017-09-20T16:11:40.070Z,10.43
2017-09-20T16:14:07.504Z,10.97
2017-09-20T16:16:34.969Z,10.30
2017-09-20T16:19:02.449Z,12.10
2017-09-20T16:21:30.030Z,11.63
2017-09-20T16:23:57.450Z,11.97
2017-09-20T16:26:24.964Z,12.80
2017-09-20T16:28:52.436Z,11.27
2017-09-20T16:31:19.946Z,9.73
2017-09-20T16:33:47.406Z,13.90
2017-09-20T16:36:14.937Z,10.60
2017-09-20T16:38:42.545Z,10.10
2017-09-20T16:41:10.098Z,11.27
2017-09-20T16:43:37.543Z,11.43
2017-09-20T16:46:05.095Z,10.63
2017-09-20T16:48:32.503Z,10.73
2017-09-20T16:50:59.923Z,11.50
2017-09-20T16:53:27.443Z,10.90
2017-09-20T16:55:54.893Z,11.60
2017-09-20T16:58:22.352Z,10.13
2017-09-20T17:00:49.930Z,10.03
2017-09-20T17:03:17.869Z,9.87
2017-09-20T17:05:45.354Z,9.10
2017-09-20T17:08:13.235Z,10.33
2017-09-20T17:10:40.760Z,10.60
2017-09-20T17:13:08.225Z,10.07
2017-09-20T17:15:35.657Z,10.33
2017-09-20T17:18:03.117Z,10.50
2017-09-20T17:20:30.600Z,10.30
2017-09-20T17:22:58.042Z,10.80
2017-09-20T17:25:25.528Z,10.00
2017-09-20T17:27:53.131Z,9.77
2017-09-20T17:30:20.559Z,9.37
2017-09-20T17:32:48.003Z,8.43
2017-09-20T17:35:15.455Z,8.70
2017-09-20T17:37:42.901Z,8.60
2017-09-20T17:40:10.876Z,8.57
2017-09-20T17:42:38.703Z,9.63
2017-09-20T17:45:06.131Z,9.33
2017-09-20T17:47:33.581Z,9.60
2017-09-20T17:50:01.007Z,9.80
2017-09-20T17:52:28.427Z,9.23
2017-09-20T17:54:56.076Z,9.90
2017-09-20T17:57:23.542Z,9.60
2017-09-20T17:59:50.964Z,9.10
2017-09-20T18:02:18.460Z,9.87
2017-09-20T18:04:45.883Z,11.93
2017-09-20T18:07:13.332Z,11.63
2017-09-20T18:09:40.956Z,10.97
2017-09-20T18:12:08.514Z,11.77
2017-09-20T18:14:35.931Z,12.97
2017-09-20T18:17:03.368Z,12.80
2017-09-20T18:19:30.815Z,12.27
2017-09-20T18:21:58.236Z,13.17
2017-09-20T18:24:26.148Z,11.93
2017-09-20T18:26:53.585Z,13.60
2017-09-20T18:29:21.276Z,12.37
2017-09-20T18:31:48.704Z,12.00
2017-09-20T18:34:16.170Z,11.20
2017-09-20T18:36:44.071Z,12.23
2017-09-20T18:39:11.486Z,11.40
2017-09-20T18:41:39.372Z,11.80
2017-09-20T18:44:07.619Z,12.07
2017-09-20T18:49:25.843Z,12.10
2017-09-20T18:51:53.297Z,12.57
2017-09-20T18:54:23.728Z,12.70
2017-09-20T18:56:51.399Z,13.47
2017-09-20T18:59:18.845Z,12.80
2017-09-20T19:01:46.272Z,12.30
2017-09-20T19:04:14.382Z,11.97
2017-09-20T19:06:41.818Z,11.40
2017-09-20T19:09:09.760Z,12.20
2017-09-20T19:11:37.208Z,12.13
2017-09-20T19:14:04.632Z,13.27
2017-09-20T19:16:32.412Z,14.20
2017-09-20T19:19:00.089Z,14.23
2017-09-20T19:21:27.504Z,13.90
2017-09-20T19:23:55.321Z,12.53
2017-09-20T19:26:23.727Z,13.83
2017-09-20T19:28:51.154Z,13.03
2017-09-20T19:31:18.580Z,13.43
2017-09-20T19:33:46.608Z,13.07
2017-09-20T19:36:14.038Z,13.53
2017-09-20T19:38:41.459Z,12.90
2017-09-20T19:41:08.886Z,15.23
2017-09-20T19:43:36.431Z,13.20
2017-09-20T19:46:03.911Z,15.00
2017-09-20T19:48:31.375Z,13.27
2017-09-20T19:50:58.811Z,13.90
2017-09-20T19:53:26.288Z,14.00
2017-09-20T19:55:53.724Z,13.60
2017-09-20T19:58:21.617Z,13.30
2017-09-20T20:00:49.047Z,14.03
2017-09-20T20:03:16.949Z,12.77
2017-09-20T20:05:44.400Z,13.53
2017-09-20T20:08:12.221Z,12.53
2017-09-20T20:10:39.657Z,14.07
2017-09-20T20:13:07.118Z,12.63
2017-09-20T20:15:34.682Z,14.20
2017-09-20T20:18:02.273Z,13.70
2017-09-20T20:20:29.701Z,13.50
2017-09-20T20:22:57.216Z,13.40
2017-09-20T20:25:24.649Z,12.50
2017-09-20T20:27:52.188Z,12.50
2017-09-20T20:30:19.782Z,12.80
2017-09-20T20:32:47.201Z,13.23
2017-09-20T20:35:14.627Z,14.37
2017-09-20T20:37:42.068Z,14.67
2017-09-20T20:40:09.493Z,15.33
2017-09-20T20:42:36.920Z,13.60
2017-09-20T20:45:04.767Z,13.60
2017-09-20T20:47:32.203Z,13.97
2017-09-20T20:49:59.637Z,13.70
2017-09-20T20:52:28.896Z,13.77
2017-09-20T20:54:56.339Z,12.97
2017-09-20T20:57:23.763Z,11.97
2017-09-20T20:59:51.202Z,13.63
2017-09-20T21:02:19.314Z,13.10
2017-09-20T21:04:49.775Z,11.40
2017-09-20T21:07:17.215Z,12.37
2017-09-20T21:09:44.667Z,12.80
2017-09-20T21:12:13.252Z,11.30
2017-09-20T21:14:40.761Z,11.40
2017-09-20T21:17:08.323Z,12.10
2017-09-20T21:19:35.767Z,11.97
2017-09-20T21:22:03.342Z,11.53
2017-09-20T21:24:30.818Z,11.10
2017-09-20T21:26:58.338Z,10.27
2017-09-20T21:29:25.765Z,11.73
2017-09-20T21:31:53.674Z,11.83
2017-09-20T21:34:21.087Z,11.60
2017-09-20T21:36:48.903Z,10.80
2017-09-20T21:39:17.409Z,10.00
2017-09-20T21:41:44.842Z,11.83
2017-09-20T21:44:12.318Z,11.80
2017-09-20T21:46:39.799Z,11.73
2017-09-20T21:49:07.231Z,11.63
2017-09-20T21:51:34.651Z,12.87
2017-09-20T21:54:02.693Z,12.70
2017-09-20T21:56:30.119Z,12.53
2017-09-20T21:58:57.668Z,11.00
2017-09-20T22:01:25.570Z,11.90
2017-09-20T22:03:53.043Z,11.27
2017-09-20T22:06:20.686Z,11.60
2017-09-20T22:08:48.107Z,12.83
2017-09-20T22:11:15.951Z,12.83
2017-09-20T22:13:43.589Z,13.20
2017-09-20T22:16:23.036Z,12.73
2017-09-20T22:19:02.477Z,12.40
2017-09-20T22:21:42.039Z,11.97
2017-09-20T22:24:21.712Z,11.50
2017-09-20T22:26:48.685Z,11.57
2017-09-20T22:29:16.119Z,10.53
2017-09-20T22:31:44.001Z,12.57
2017-09-20T22:34:11.480Z,12.20
2017-09-20T22:36:38.902Z,11.07
2017-09-20T22:39:06.352Z,14.03
2017-09-20T22:41:33.784Z,12.73
2017-09-20T22:44:01.219Z,13.40
2017-09-20T22:46:28.699Z,13.53
2017-09-20T22:48:56.155Z,14.00
2017-09-20T22:51:23.636Z,13.67
2017-09-20T22:53:51.269Z,13.90
2017-09-20T22:56:18.715Z,15.40
2017-09-20T22:58:46.570Z,14.63
2017-09-20T23:01:14.082Z,14.30
2017-09-20T23:03:41.503Z,14.00
2017-09-20T23:06:09.712Z,13.30
2017-09-20T23:08:37.178Z,13.27
2017-09-20T23:11:04.614Z,12.30
2017-09-20T23:13:32.515Z,11.23
2017-09-20T23:15:59.957Z,11.87
2017-09-20T23:18:27.440Z,10.10
2017-09-20T23:20:55.116Z,11.00
2017-09-20T23:23:22.548Z,10.80
2017-09-20T23:25:49.972Z,10.33
2017-09-20T23:28:17.459Z,10.23
2017-09-20T23:30:45.286Z,10.70
2017-09-20T23:33:13.154Z,10.40
2017-09-20T23:35:40.702Z,10.20
2017-09-20T23:38:08.150Z,10.60
2017-09-20T23:40:35.583Z,11.20
2017-09-20T23:43:03.709Z,10.00
2017-09-20T23:45:31.134Z,9.80
2017-09-20T23:47:58.575Z,10.83
2017-09-20T23:50:26.479Z,10.00
2017-09-20T23:52:54.047Z,10.07
2017-09-20T23:55:21.463Z,10.33
2017-09-20T23:57:49.094Z,10.47
